createdAt,value
2022-12-15T00:02:36.950Z,10.06
2022-12-15T00:05:41.023Z,10.14
2022-12-15T00:08:45.021Z,10.14
2022-12-15T00:11:48.879Z,10.00
2022-12-15T00:14:52.845Z,10.15
2022-12-15T00:17:56.927Z,10.14
2022-12-15T00:21:00.855Z,9.91
2022-12-15T00:24:04.697Z,9.98
2022-12-15T00:27:08.693Z,9.70
2022-12-15T00:30:12.760Z,9.79
2022-12-15T00:33:16.902Z,9.51
2022-12-15T00:36:20.577Z,9.59
2022-12-15T00:39:24.390Z,9.46
2022-12-15T00:42:28.350Z,9.57
2022-12-15T00:45:32.578Z,9.61
2022-12-15T00:48:36.555Z,9.35
2022-12-15T00:51:40.426Z,9.43
2022-12-15T00:54:44.390Z,9.15
2022-12-15T00:57:48.406Z,9.22
2022-12-15T01:00:52.379Z,9.28
2022-12-15T01:03:56.409Z,9.61
2022-12-15T01:07:00.349Z,9.56
2022-12-15T01:10:04.493Z,9.56
2022-12-15T01:13:08.514Z,9.56
2022-12-15T01:16:12.550Z,9.57
2022-12-15T01:19:16.686Z,9.62
2022-12-15T01:22:20.350Z,9.71
2022-12-15T01:25:24.641Z,9.50
2022-12-15T01:28:28.672Z,9.63
2022-12-15T01:31:32.658Z,9.53
2022-12-15T01:34:36.958Z,9.50
2022-12-15T01:37:41.163Z,9.36
2022-12-15T01:40:45.336Z,9.24
2022-12-15T01:43:50.000Z,9.10
2022-12-15T01:46:53.927Z,9.08
2022-12-15T01:49:57.965Z,9.09
2022-12-15T01:53:02.292Z,9.06
2022-12-15T01:56:06.316Z,8.81
2022-12-15T01:59:10.138Z,8.81
2022-12-15T02:02:14.094Z,8.86
2022-12-15T02:05:18.177Z,8.98
2022-12-15T02:08:22.216Z,9.17
2022-12-15T02:11:26.202Z,9.18
2022-12-15T02:14:30.059Z,9.01
2022-12-15T02:17:34.205Z,9.05
2022-12-15T02:20:38.299Z,9.39
2022-12-15T02:23:42.265Z,9.29
2022-12-15T02:26:46.191Z,8.86
2022-12-15T02:29:50.104Z,9.09
2022-12-15T02:32:54.315Z,8.97
2022-12-15T02:35:58.447Z,8.87
2022-12-15T02:39:02.446Z,8.82
2022-12-15T02:42:06.561Z,8.81
2022-12-15T02:45:10.273Z,8.88
2022-12-15T02:48:14.360Z,9.08
2022-12-15T02:51:18.266Z,8.90
2022-12-15T02:54:22.182Z,8.88
2022-12-15T02:57:25.898Z,8.94
2022-12-15T03:00:30.009Z,8.72
2022-12-15T03:03:34.625Z,8.70
2022-12-15T03:06:39.016Z,8.66
2022-12-15T03:09:42.902Z,8.55
2022-12-15T03:12:46.841Z,8.50
2022-12-15T03:15:50.863Z,8.29
2022-12-15T03:18:54.818Z,8.40
2022-12-15T03:21:58.722Z,8.30
2022-12-15T03:25:02.646Z,7.94
2022-12-15T03:28:06.614Z,8.16
2022-12-15T03:31:10.892Z,8.20
2022-12-15T03:34:14.940Z,7.96
2022-12-15T03:37:18.753Z,7.87
2022-12-15T03:40:22.651Z,7.78
2022-12-15T03:43:26.658Z,7.75
2022-12-15T03:46:30.678Z,7.89
2022-12-15T03:49:34.551Z,7.94
2022-12-15T03:52:38.383Z,7.97
2022-12-15T03:55:42.387Z,7.92
2022-12-15T03:58:46.508Z,7.80
2022-12-15T04:01:50.563Z,7.82
2022-12-15T04:04:54.320Z,7.99
2022-12-15T04:07:58.062Z,7.91
2022-12-15T04:11:02.071Z,7.93
2022-12-15T04:14:05.959Z,8.01
2022-12-15T04:17:09.564Z,8.16
2022-12-15T04:20:13.334Z,8.26
2022-12-15T04:23:17.203Z,7.95
2022-12-15T04:26:21.186Z,8.21
2022-12-15T04:29:25.157Z,8.03
2022-12-15T04:32:28.967Z,7.78
2022-12-15T04:35:32.881Z,7.98
2022-12-15T04:38:36.903Z,7.96
2022-12-15T04:41:40.983Z,7.88
2022-12-15T04:44:44.887Z,7.82
2022-12-15T04:47:53.944Z,7.81
2022-12-15T04:50:57.760Z,7.77
2022-12-15T04:54:01.795Z,7.78
2022-12-15T04:57:05.791Z,7.97
2022-12-15T05:00:09.781Z,7.87
2022-12-15T05:03:18.162Z,7.78
2022-12-15T05:06:22.611Z,7.78
2022-12-15T05:09:26.372Z,7.89
2022-12-15T05:12:30.579Z,7.92
2022-12-15T05:15:36.193Z,7.95
2022-12-15T05:18:40.344Z,8.01
2022-12-15T05:21:44.430Z,8.08
2022-12-15T05:24:48.383Z,8.04
2022-12-15T05:27:52.453Z,7.95
2022-12-15T05:30:56.527Z,7.83
2022-12-15T05:34:05.203Z,7.92
2022-12-15T05:37:09.809Z,8.20
2022-12-15T05:40:13.823Z,8.08
2022-12-15T05:43:23.032Z,8.23
2022-12-15T05:46:29.854Z,8.14
2022-12-15T05:49:33.514Z,8.03
2022-12-15T05:52:37.556Z,7.98
2022-12-15T05:55:41.683Z,7.92
2022-12-15T05:58:45.859Z,7.76
2022-12-15T06:01:49.629Z,7.76
2022-12-15T06:04:53.509Z,7.77
2022-12-15T06:07:57.657Z,7.77
2022-12-15T06:11:01.716Z,7.82
2022-12-15T06:14:05.762Z,7.58
2022-12-15T06:17:09.904Z,7.65
2022-12-15T06:20:14.027Z,7.66
2022-12-15T06:23:18.158Z,7.93
2022-12-15T06:26:22.195Z,8.04
2022-12-15T06:29:26.115Z,8.05
2022-12-15T06:32:29.846Z,7.73
2022-12-15T06:35:34.257Z,7.67
2022-12-15T06:38:38.243Z,8.11
2022-12-15T06:41:42.031Z,8.03
2022-12-15T06:44:45.934Z,7.93
2022-12-15T06:47:57.943Z,7.96
2022-12-15T06:51:05.469Z,8.01
2022-12-15T06:54:09.471Z,8.05
2022-12-15T06:57:13.453Z,8.00
2022-12-15T07:00:17.632Z,8.12
2022-12-15T07:03:21.764Z,8.11
2022-12-15T07:06:25.556Z,8.03
2022-12-15T07:09:29.415Z,8.13
2022-12-15T07:12:34.515Z,7.89
2022-12-15T07:15:38.737Z,7.97
2022-12-15T07:18:42.709Z,7.90
2022-12-15T07:21:46.739Z,8.01
2022-12-15T07:24:50.641Z,7.76
2022-12-15T07:27:54.756Z,7.75
2022-12-15T07:30:58.808Z,7.61
2022-12-15T07:34:02.743Z,7.83
2022-12-15T07:37:06.591Z,7.82
2022-12-15T07:40:10.779Z,7.75
2022-12-15T07:43:15.020Z,7.69
2022-12-15T07:46:19.132Z,7.86
2022-12-15T07:49:22.769Z,8.13
2022-12-15T07:52:26.827Z,8.15
2022-12-15T07:55:57.348Z,8.06
2022-12-15T07:58:54.508Z,7.84
2022-12-15T08:01:58.635Z,8.07
2022-12-15T08:05:02.663Z,8.37
2022-12-15T08:08:08.510Z,8.33
2022-12-15T08:11:15.930Z,8.40
2022-12-15T08:14:20.039Z,8.54
2022-12-15T08:17:24.386Z,8.66
2022-12-15T08:20:28.437Z,8.69
2022-12-15T08:23:32.832Z,8.69
2022-12-15T08:26:36.755Z,8.35
2022-12-15T08:29:56.103Z,8.12
2022-12-15T08:32:59.948Z,7.91
2022-12-15T08:36:04.053Z,8.31
2022-12-15T08:39:07.888Z,8.17
2022-12-15T08:42:11.643Z,8.46
2022-12-15T08:45:15.451Z,8.77
2022-12-15T08:48:28.583Z,8.83
2022-12-15T08:51:32.471Z,8.98
2022-12-15T08:54:36.744Z,9.12
2022-12-15T08:57:40.841Z,9.08
2022-12-15T09:00:44.926Z,9.10
2022-12-15T09:03:48.532Z,9.19
2022-12-15T09:06:52.583Z,9.26
2022-12-15T09:09:57.639Z,9.29
2022-12-15T09:13:01.786Z,9.38
2022-12-15T09:16:11.571Z,9.36
2022-12-15T09:19:15.427Z,9.41
2022-12-15T09:22:19.553Z,9.54
2022-12-15T09:25:23.480Z,9.35
2022-12-15T09:28:27.435Z,9.54
2022-12-15T09:31:31.753Z,9.58
2022-12-15T09:34:35.587Z,9.67
2022-12-15T09:37:39.193Z,9.68
2022-12-15T09:40:43.033Z,9.74
2022-12-15T09:43:47.756Z,9.77
2022-12-15T09:46:51.450Z,9.77
2022-12-15T09:49:55.295Z,9.82
2022-12-15T09:52:59.307Z,9.87
2022-12-15T09:56:03.373Z,9.86
2022-12-15T09:59:07.382Z,8.92
2022-12-15T10:02:11.331Z,9.53
2022-12-15T10:05:15.107Z,9.75
2022-12-15T10:08:19.137Z,9.64
2022-12-15T10:11:23.567Z,9.87
2022-12-15T10:14:27.538Z,9.58
2022-12-15T10:17:31.660Z,9.31
2022-12-15T10:20:35.696Z,9.41
2022-12-15T10:23:39.657Z,9.48
2022-12-15T10:26:43.623Z,9.44
2022-12-15T10:29:50.781Z,9.70
2022-12-15T10:32:54.987Z,9.52
2022-12-15T10:35:58.939Z,9.24
2022-12-15T10:39:03.014Z,9.73
2022-12-15T10:42:07.161Z,9.74
2022-12-15T10:45:11.197Z,10.12
2022-12-15T10:48:15.042Z,10.02
2022-12-15T10:51:18.934Z,10.27
2022-12-15T10:54:23.277Z,10.33
2022-12-15T10:57:27.121Z,10.32
2022-12-15T11:00:30.903Z,10.43
2022-12-15T11:03:35.327Z,10.42
2022-12-15T11:06:39.631Z,10.53
2022-12-15T11:09:43.552Z,10.54
2022-12-15T11:12:48.829Z,10.54
2022-12-15T11:19:18.369Z,10.14
2022-12-15T11:22:22.296Z,10.53
2022-12-15T11:25:26.308Z,10.62
2022-12-15T11:28:30.083Z,10.64
2022-12-15T11:31:34.321Z,10.75
2022-12-15T11:34:38.220Z,10.37
2022-12-15T11:37:42.094Z,10.70
2022-12-15T11:40:45.950Z,10.54
2022-12-15T11:43:50.438Z,10.79
2022-12-15T11:46:54.635Z,10.88
2022-12-15T11:49:59.137Z,10.75
2022-12-15T11:53:03.030Z,10.71
2022-12-15T11:56:07.071Z,10.80
2022-12-15T11:59:11.115Z,10.82
2022-12-15T12:02:15.263Z,10.71
2022-12-15T12:05:18.959Z,10.82
2022-12-15T12:08:23.144Z,10.90
2022-12-15T12:11:27.310Z,10.68
2022-12-15T12:14:31.244Z,10.52
2022-12-15T12:17:35.224Z,9.80
2022-12-15T12:20:39.163Z,9.96
2022-12-15T12:23:43.094Z,9.93
2022-12-15T12:26:48.519Z,10.31
2022-12-15T12:29:54.170Z,10.29
2022-12-15T12:32:58.747Z,10.49
2022-12-15T12:36:02.703Z,10.43
2022-12-15T12:39:06.657Z,10.58
2022-12-15T12:42:10.734Z,10.50
2022-12-15T12:45:14.767Z,10.34
2022-12-15T12:48:18.498Z,9.89
2022-12-15T12:51:22.331Z,10.27
2022-12-15T12:54:25.869Z,10.42
2022-12-15T12:57:30.095Z,10.64
2022-12-15T13:00:34.352Z,10.52
2022-12-15T13:03:38.460Z,10.61
2022-12-15T13:06:42.314Z,10.67
2022-12-15T13:09:47.765Z,10.73
2022-12-15T13:12:53.259Z,10.65
2022-12-15T13:15:57.787Z,10.64
2022-12-15T13:19:01.539Z,10.56
2022-12-15T13:22:05.277Z,10.25
2022-12-15T13:25:09.539Z,10.25
2022-12-15T13:28:13.349Z,10.36
2022-12-15T13:31:17.367Z,10.31
2022-12-15T13:34:21.326Z,10.16
2022-12-15T13:37:25.250Z,10.03
2022-12-15T13:40:29.203Z,10.18
2022-12-15T13:43:33.639Z,10.25
2022-12-15T13:46:37.475Z,9.14
2022-12-15T13:49:47.569Z,9.43
2022-12-15T13:56:19.381Z,10.03
2022-12-15T13:59:23.516Z,10.21
2022-12-15T14:02:27.332Z,10.39
2022-12-15T14:05:31.363Z,9.81
2022-12-15T14:08:35.019Z,9.93
2022-12-15T14:15:02.641Z,9.68
2022-12-15T14:18:06.424Z,10.05
2022-12-15T14:21:10.379Z,10.10
2022-12-15T14:24:38.092Z,10.15
2022-12-15T14:27:38.140Z,9.40
2022-12-15T14:30:42.276Z,9.49
2022-12-15T14:33:46.103Z,9.44
2022-12-15T14:36:54.460Z,10.05
2022-12-15T14:39:58.262Z,10.10
2022-12-15T14:43:02.256Z,9.62
2022-12-15T14:46:06.451Z,9.77
2022-12-15T14:49:10.966Z,9.79
2022-12-15T14:52:14.827Z,10.05
2022-12-15T14:55:18.937Z,9.92
2022-12-15T14:58:22.882Z,9.72
2022-12-15T15:01:26.861Z,9.78
2022-12-15T15:03:04.702Z,10.12
2022-12-15T15:04:30.588Z,9.52
2022-12-15T15:07:34.712Z,9.57
2022-12-15T15:10:38.588Z,9.72
2022-12-15T15:13:42.689Z,9.78
2022-12-15T15:16:46.520Z,9.41
2022-12-15T15:19:50.334Z,9.75
2022-12-15T15:22:54.453Z,9.83
2022-12-15T15:25:59.893Z,9.23
2022-12-15T15:29:03.937Z,9.58
2022-12-15T15:32:08.162Z,9.48
2022-12-15T15:35:11.882Z,9.25
2022-12-15T15:38:15.887Z,9.07
2022-12-15T15:41:20.207Z,9.53
2022-12-15T15:44:24.245Z,8.98
2022-12-15T15:47:27.999Z,9.37
2022-12-15T15:50:31.955Z,8.90
2022-12-15T15:53:36.270Z,9.16
2022-12-15T15:56:40.149Z,9.00
2022-12-15T15:59:44.075Z,9.41
2022-12-15T16:02:48.331Z,9.64
2022-12-15T16:05:52.105Z,9.22
2022-12-15T16:08:56.127Z,9.11
2022-12-15T16:12:00.124Z,9.20
2022-12-15T16:15:03.975Z,9.20
2022-12-15T16:18:08.015Z,9.08
2022-12-15T16:21:12.191Z,9.20
2022-12-15T16:24:16.252Z,8.69
2022-12-15T16:27:20.255Z,8.44
2022-12-15T16:30:24.202Z,8.74
2022-12-15T16:33:28.339Z,8.86
2022-12-15T16:36:32.343Z,9.07
2022-12-15T16:39:36.447Z,9.08
2022-12-15T16:42:40.319Z,8.84
2022-12-15T16:45:44.413Z,8.62
2022-12-15T16:48:48.396Z,8.77
2022-12-15T16:51:52.372Z,8.66
2022-12-15T16:54:56.414Z,8.91
2022-12-15T16:58:00.316Z,8.58
2022-12-15T17:01:04.522Z,8.71
2022-12-15T17:04:08.607Z,8.72
2022-12-15T17:07:16.375Z,8.79
2022-12-15T17:10:23.715Z,8.55
2022-12-15T17:13:35.614Z,8.37
2022-12-15T17:16:41.040Z,8.66
2022-12-15T17:20:11.758Z,8.81
2022-12-15T17:23:08.965Z,8.96
2022-12-15T17:26:29.929Z,8.65
2022-12-15T17:29:34.376Z,7.99
2022-12-15T17:32:38.298Z,8.37
2022-12-15T17:35:42.385Z,7.36
2022-12-15T17:38:46.660Z,7.70
2022-12-15T17:41:59.802Z,7.54
2022-12-15T17:45:05.059Z,7.95
2022-12-15T17:48:09.086Z,8.32
2022-12-15T17:51:13.285Z,8.53
2022-12-15T17:54:17.048Z,8.57
2022-12-15T17:57:20.971Z,8.39
2022-12-15T18:00:25.316Z,8.27
2022-12-15T18:03:29.865Z,8.64
2022-12-15T18:06:34.489Z,8.60
2022-12-15T18:09:38.197Z,8.66
2022-12-15T18:16:10.629Z,8.57
2022-12-15T18:19:14.381Z,8.67
2022-12-15T18:22:18.447Z,8.75
2022-12-15T18:25:22.350Z,8.40
2022-12-15T18:28:28.933Z,8.09
2022-12-15T18:31:33.262Z,8.19
2022-12-15T18:34:46.114Z,8.48
2022-12-15T18:41:38.903Z,8.65
2022-12-15T18:44:43.023Z,8.40
2022-12-15T18:47:47.436Z,8.33
2022-12-15T18:50:51.523Z,8.59
2022-12-15T18:53:55.395Z,8.64
2022-12-15T18:56:59.398Z,8.63
2022-12-15T19:00:03.380Z,8.73
2022-12-15T19:03:07.769Z,8.54
2022-12-15T19:06:13.131Z,8.54
2022-12-15T19:09:17.185Z,8.14
2022-12-15T19:12:21.069Z,8.45
2022-12-15T19:15:25.160Z,8.32
2022-12-15T19:18:28.787Z,8.32
2022-12-15T19:21:32.549Z,8.38
2022-12-15T19:24:36.563Z,8.38
2022-12-15T19:27:40.532Z,8.48
2022-12-15T19:30:44.242Z,8.35
2022-12-15T19:33:48.364Z,8.36
2022-12-15T19:36:52.523Z,8.25
2022-12-15T19:39:56.392Z,7.73
2022-12-15T19:43:00.644Z,7.49
2022-12-15T19:46:04.662Z,7.71
2022-12-15T19:49:08.766Z,7.47
2022-12-15T19:52:12.711Z,7.45
2022-12-15T19:55:17.102Z,7.57
2022-12-15T19:58:26.696Z,8.02
2022-12-15T20:01:31.643Z,7.95
2022-12-15T20:04:35.881Z,7.64
2022-12-15T20:07:39.816Z,7.20
2022-12-15T20:10:43.625Z,7.27
2022-12-15T20:13:47.945Z,7.05
2022-12-15T20:16:52.084Z,7.45
2022-12-15T20:19:55.776Z,7.87
2022-12-15T20:22:59.870Z,8.09
2022-12-15T20:26:03.556Z,8.13
2022-12-15T20:29:07.351Z,7.73
2022-12-15T20:32:11.252Z,6.91
2022-12-15T20:35:15.186Z,7.52
2022-12-15T20:38:19.071Z,7.83
2022-12-15T20:41:22.827Z,7.86
2022-12-15T20:44:27.110Z,8.10
2022-12-15T20:47:34.404Z,8.04
2022-12-15T20:50:38.736Z,7.37
2022-12-15T20:53:42.638Z,7.60
2022-12-15T20:56:46.449Z,7.87
2022-12-15T20:59:50.472Z,8.01
2022-12-15T21:02:55.161Z,7.36
2022-12-15T21:05:59.468Z,7.42
2022-12-15T21:09:03.251Z,7.29
2022-12-15T21:12:09.322Z,7.39
2022-12-15T21:15:13.328Z,7.30
2022-12-15T21:19:03.588Z,7.39
2022-12-15T21:21:41.294Z,6.72
2022-12-15T21:24:45.111Z,7.49
2022-12-15T21:27:49.196Z,7.78
2022-12-15T21:30:53.350Z,7.78
2022-12-15T21:33:56.967Z,7.56
2022-12-15T21:37:01.254Z,7.12
2022-12-15T21:40:05.132Z,7.27
2022-12-15T21:43:09.228Z,7.35
2022-12-15T21:46:13.255Z,7.75
2022-12-15T21:49:17.586Z,7.67
2022-12-15T21:52:21.522Z,8.05
2022-12-15T21:55:25.523Z,8.12
2022-12-15T21:58:30.034Z,7.73
2022-12-15T22:01:34.146Z,8.11
2022-12-15T22:04:38.218Z,8.18
2022-12-15T22:07:42.524Z,8.28
2022-12-15T22:10:46.399Z,8.35
2022-12-15T22:13:50.441Z,8.15
2022-12-15T22:16:54.242Z,7.93
2022-12-15T22:19:58.821Z,8.02
2022-12-15T22:23:02.898Z,7.83
2022-12-15T22:26:08.593Z,8.18
2022-12-15T22:29:12.456Z,8.22
2022-12-15T22:32:16.471Z,8.34
2022-12-15T22:35:21.811Z,8.22
2022-12-15T22:38:25.724Z,8.38
2022-12-15T22:41:29.292Z,8.27
2022-12-15T22:44:33.443Z,8.27
2022-12-15T22:47:37.723Z,8.36
2022-12-15T22:50:41.923Z,8.47
2022-12-15T22:53:45.936Z,8.28
2022-12-15T22:56:50.290Z,8.09
2022-12-15T22:59:54.759Z,7.86
2022-12-15T23:02:59.078Z,7.82
2022-12-15T23:06:03.104Z,8.01
2022-12-15T23:09:06.971Z,8.06
2022-12-15T23:12:10.781Z,8.29
2022-12-15T23:15:18.413Z,8.36
2022-12-15T23:18:25.146Z,8.33
2022-12-15T23:21:29.383Z,8.20
2022-12-15T23:24:33.066Z,8.34
2022-12-15T23:27:36.955Z,8.33
2022-12-15T23:30:40.683Z,8.01
2022-12-15T23:33:44.890Z,8.04
2022-12-15T23:36:49.119Z,7.73
2022-12-15T23:39:53.190Z,7.85
2022-12-15T23:42:57.795Z,6.78
2022-12-15T23:46:01.724Z,7.43
2022-12-15T23:49:05.911Z,7.96
2022-12-15T23:52:10.152Z,8.15
2022-12-15T23:55:14.129Z,7.80
2022-12-15T23:58:17.842Z,7.85
